Estación Meteorológica Peña el Pijo (Robertgarden) [ 01/30/23 13:46:23 CET ]

Fecha Hora Presion(HPa) Temp (°C) Humedad % Rocio (°C) Viento ( m/s) Direccion Lluvia 1Hora(mm) Lluvia 24H(mm) LLuvia Total(mm)
2010-Jun-18 01:01:11 1010.500 11.3 79 7.8         120.17
2010-Jun-18 02:01:13 1010.500 9.9 83 7.1         120.17
2010-Jun-18 03:03:16 1010.500 9.1 85 6.7         120.17
2010-Jun-18 04:01:11 1010.400 8.4 87 6.4         120.17
2010-Jun-18 05:01:12 1010.100 7.9 88 6.1         120.17
2010-Jun-18 06:01:13 1010.100 7.3 88 5.5         120.17
2010-Jun-18 07:01:14 1010.600 8.8 89 7.1         120.17
2010-Jun-18 08:01:10 1010.800 12.4 85 9.9         120.17
2010-Jun-18 09:01:12 1010.900 17.5 65 10.8         120.17
2010-Jun-18 10:01:12 1010.700 21.2 52 10.9         120.17
2010-Jun-18 11:01:13 1010.600 23.8 42 10.1         120.17
2010-Jun-18 12:01:14 1010.500 26.9 32 8.8 2.2 SW     120.17
2010-Jun-18 13:01:17 1010.500 27.1 30 8.1         120.17
2010-Jun-18 14:01:12 1010.100 27.0 27 6.3         120.17
2010-Jun-18 15:01:14 1009.500 28.4 26 6.8         120.17
2010-Jun-18 16:01:14 1008.800 28.5 25 6.3         120.17
2010-Jun-18 17:01:14 1008.400 29.3 23 5.8         120.17
2010-Jun-18 18:01:17 1008.700 26.5 29 7.0         120.17
2010-Jun-18 19:01:14 1008.400 25.1 33 7.6         120.17
2010-Jun-18 20:01:12 1008.600 23.3 36 7.3 1.1 S     120.17
2010-Jun-18 21:01:14 1008.700 20.3 42 6.9         120.17
2010-Jun-18 22:01:12 1009.200 18.6 48 7.3         120.17
2010-Jun-18 23:01:16 1009.700 16.0 56 7.2         120.17

Temperatura Máxima:29°    Temperatura Mínima:
Presión Máxima:1010.900 Hpa    Presión Mínima:1008.400 Hpa


Volver